sensor_id;sensor_type;location;lat;lon;timestamp;P1;durP1;ratioP1;P2;durP2;ratioP2
21215;SDS011;10765;50.954;5.322;2023-03-14T00:01:19;4.07;;;1.30;;
21215;SDS011;10765;50.954;5.322;2023-03-14T00:03:46;3.87;;;1.70;;
21215;SDS011;10765;50.954;5.322;2023-03-14T00:06:13;2.90;;;1.27;;
21215;SDS011;10765;50.954;5.322;2023-03-14T00:08:41;5.47;;;1.20;;
21215;SDS011;10765;50.954;5.322;2023-03-14T00:11:10;5.43;;;1.40;;
21215;SDS011;10765;50.954;5.322;2023-03-14T00:13:40;4.43;;;1.20;;
21215;SDS011;10765;50.954;5.322;2023-03-14T00:16:08;3.37;;;1.30;;
21215;SDS011;10765;50.954;5.322;2023-03-14T00:18:36;4.73;;;1.50;;
21215;SDS011;10765;50.954;5.322;2023-03-14T00:21:04;3.60;;;1.60;;
21215;SDS011;10765;50.954;5.322;2023-03-14T00:23:33;3.20;;;1.23;;
21215;SDS011;10765;50.954;5.322;2023-03-14T00:26:01;3.80;;;1.30;;
21215;SDS011;10765;50.954;5.322;2023-03-14T00:28:30;3.17;;;1.40;;
21215;SDS011;10765;50.954;5.322;2023-03-14T00:30:58;2.63;;;1.07;;
21215;SDS011;10765;50.954;5.322;2023-03-14T00:33:27;3.30;;;1.47;;
21215;SDS011;10765;50.954;5.322;2023-03-14T00:35:55;3.60;;;1.10;;
21215;SDS011;10765;50.954;5.322;2023-03-14T00:38:23;3.30;;;1.17;;
21215;SDS011;10765;50.954;5.322;2023-03-14T00:40:50;2.60;;;0.90;;
21215;SDS011;10765;50.954;5.322;2023-03-14T00:43:17;3.17;;;1.10;;
21215;SDS011;10765;50.954;5.322;2023-03-14T00:45:46;3.13;;;1.23;;
21215;SDS011;10765;50.954;5.322;2023-03-14T00:48:14;3.87;;;1.10;;
21215;SDS011;10765;50.954;5.322;2023-03-14T00:50:41;3.23;;;1.10;;
21215;SDS011;10765;50.954;5.322;2023-03-14T00:53:08;4.17;;;1.30;;
21215;SDS011;10765;50.954;5.322;2023-03-14T00:55:36;4.80;;;1.30;;
21215;SDS011;10765;50.954;5.322;2023-03-14T00:58:03;4.10;;;1.30;;
21215;SDS011;10765;50.954;5.322;2023-03-14T01:00:30;4.13;;;1.20;;
21215;SDS011;10765;50.954;5.322;2023-03-14T01:02:57;7.10;;;1.60;;
21215;SDS011;10765;50.954;5.322;2023-03-14T01:05:26;8.37;;;1.83;;
21215;SDS011;10765;50.954;5.322;2023-03-14T01:07:53;5.83;;;1.50;;
21215;SDS011;10765;50.954;5.322;2023-03-14T01:10:23;5.13;;;1.40;;
21215;SDS011;10765;50.954;5.322;2023-03-14T01:12:50;5.63;;;1.67;;
21215;SDS011;10765;50.954;5.322;2023-03-14T01:15:17;7.10;;;1.80;;
21215;SDS011;10765;50.954;5.322;2023-03-14T01:17:44;8.23;;;1.70;;
21215;SDS011;10765;50.954;5.322;2023-03-14T01:20:12;4.77;;;1.30;;
21215;SDS011;10765;50.954;5.322;2023-03-14T01:22:42;7.10;;;1.80;;
21215;SDS011;10765;50.954;5.322;2023-03-14T01:25:10;7.50;;;1.73;;
21215;SDS011;10765;50.954;5.322;2023-03-14T01:27:39;5.70;;;1.90;;
21215;SDS011;10765;50.954;5.322;2023-03-14T01:30:06;5.37;;;1.40;;
21215;SDS011;10765;50.954;5.322;2023-03-14T01:32:34;6.80;;;1.77;;
21215;SDS011;10765;50.954;5.322;2023-03-14T01:35:01;5.77;;;1.37;;
21215;SDS011;10765;50.954;5.322;2023-03-14T01:37:29;6.20;;;1.70;;
21215;SDS011;10765;50.954;5.322;2023-03-14T01:39:57;4.57;;;1.60;;
21215;SDS011;10765;50.954;5.322;2023-03-14T01:42:24;4.87;;;1.40;;
21215;SDS011;10765;50.954;5.322;2023-03-14T01:44:53;6.00;;;1.53;;
21215;SDS011;10765;50.954;5.322;2023-03-14T01:47:21;5.80;;;1.83;;
21215;SDS011;10765;50.954;5.322;2023-03-14T01:49:49;8.37;;;1.50;;
21215;SDS011;10765;50.954;5.322;2023-03-14T01:52:20;7.73;;;2.30;;
21215;SDS011;10765;50.954;5.322;2023-03-14T01:54:49;7.80;;;2.10;;
21215;SDS011;10765;50.954;5.322;2023-03-14T01:57:23;8.27;;;1.83;;
21215;SDS011;10765;50.954;5.322;2023-03-14T01:59:54;5.60;;;1.73;;
21215;SDS011;10765;50.954;5.322;2023-03-14T02:02:26;6.17;;;1.60;;
21215;SDS011;10765;50.954;5.322;2023-03-14T02:04:53;6.97;;;1.87;;
21215;SDS011;10765;50.954;5.322;2023-03-14T02:07:22;8.77;;;2.00;;
21215;SDS011;10765;50.954;5.322;2023-03-14T02:09:53;5.70;;;2.00;;
21215;SDS011;10765;50.954;5.322;2023-03-14T02:12:23;8.50;;;1.90;;
21215;SDS011;10765;50.954;5.322;2023-03-14T02:14:52;5.57;;;1.70;;
21215;SDS011;10765;50.954;5.322;2023-03-14T02:17:20;4.97;;;1.60;;
21215;SDS011;10765;50.954;5.322;2023-03-14T02:22:43;8.43;;;2.10;;
21215;SDS011;10765;50.954;5.322;2023-03-14T02:25:12;7.03;;;2.17;;
21215;SDS011;10765;50.954;5.322;2023-03-14T02:27:44;5.87;;;1.73;;
21215;SDS011;10765;50.954;5.322;2023-03-14T02:30:14;4.97;;;1.90;;
21215;SDS011;10765;50.954;5.322;2023-03-14T02:32:44;6.70;;;1.70;;
21215;SDS011;10765;50.954;5.322;2023-03-14T02:35:14;8.27;;;2.10;;
21215;SDS011;10765;50.954;5.322;2023-03-14T02:37:46;7.40;;;2.20;;
21215;SDS011;10765;50.954;5.322;2023-03-14T02:40:16;10.30;;;1.80;;
21215;SDS011;10765;50.954;5.322;2023-03-14T02:42:45;9.77;;;2.13;;
21215;SDS011;10765;50.954;5.322;2023-03-14T02:48:06;8.30;;;1.80;;
21215;SDS011;10765;50.954;5.322;2023-03-14T02:50:36;6.17;;;1.83;;
21215;SDS011;10765;50.954;5.322;2023-03-14T02:53:04;7.77;;;2.10;;
21215;SDS011;10765;50.954;5.322;2023-03-14T02:55:31;8.10;;;2.10;;
21215;SDS011;10765;50.954;5.322;2023-03-14T02:57:59;7.53;;;1.93;;
21215;SDS011;10765;50.954;5.322;2023-03-14T03:00:26;8.47;;;1.87;;
21215;SDS011;10765;50.954;5.322;2023-03-14T03:02:55;8.53;;;2.10;;
21215;SDS011;10765;50.954;5.322;2023-03-14T03:05:24;6.60;;;1.90;;
21215;SDS011;10765;50.954;5.322;2023-03-14T03:07:51;6.13;;;1.70;;
21215;SDS011;10765;50.954;5.322;2023-03-14T03:10:18;7.73;;;1.70;;
21215;SDS011;10765;50.954;5.322;2023-03-14T03:12:45;4.53;;;1.10;;
21215;SDS011;10765;50.954;5.322;2023-03-14T03:15:13;5.57;;;1.40;;
21215;SDS011;10765;50.954;5.322;2023-03-14T03:17:40;6.37;;;1.20;;
21215;SDS011;10765;50.954;5.322;2023-03-14T03:20:07;5.60;;;1.30;;
21215;SDS011;10765;50.954;5.322;2023-03-14T03:22:35;3.17;;;0.90;;
21215;SDS011;10765;50.954;5.322;2023-03-14T03:25:03;5.57;;;1.20;;
21215;SDS011;10765;50.954;5.322;2023-03-14T03:27:31;4.07;;;1.40;;
21215;SDS011;10765;50.954;5.322;2023-03-14T03:29:58;3.83;;;0.93;;
21215;SDS011;10765;50.954;5.322;2023-03-14T03:32:27;5.83;;;1.67;;
21215;SDS011;10765;50.954;5.322;2023-03-14T03:34:54;4.90;;;1.40;;
21215;SDS011;10765;50.954;5.322;2023-03-14T03:37:21;5.70;;;2.00;;
21215;SDS011;10765;50.954;5.322;2023-03-14T03:39:49;3.67;;;1.43;;
21215;SDS011;10765;50.954;5.322;2023-03-14T03:42:16;6.83;;;1.73;;
21215;SDS011;10765;50.954;5.322;2023-03-14T03:44:43;5.87;;;1.90;;
21215;SDS011;10765;50.954;5.322;2023-03-14T03:47:10;6.23;;;1.40;;
21215;SDS011;10765;50.954;5.322;2023-03-14T03:49:38;6.87;;;1.87;;
21215;SDS011;10765;50.954;5.322;2023-03-14T03:52:05;9.23;;;1.90;;
21215;SDS011;10765;50.954;5.322;2023-03-14T03:54:32;6.67;;;2.40;;
21215;SDS011;10765;50.954;5.322;2023-03-14T03:56:59;7.60;;;2.73;;
21215;SDS011;10765;50.954;5.322;2023-03-14T03:59:28;7.97;;;2.57;;
21215;SDS011;10765;50.954;5.322;2023-03-14T04:01:55;9.87;;;2.60;;
21215;SDS011;10765;50.954;5.322;2023-03-14T04:04:22;9.77;;;3.20;;
21215;SDS011;10765;50.954;5.322;2023-03-14T04:06:50;8.30;;;2.90;;
21215;SDS011;10765;50.954;5.322;2023-03-14T04:09:17;9.53;;;2.80;;
21215;SDS011;10765;50.954;5.322;2023-03-14T04:11:44;8.47;;;2.43;;
21215;SDS011;10765;50.954;5.322;2023-03-14T04:14:11;8.83;;;2.73;;
21215;SDS011;10765;50.954;5.322;2023-03-14T04:16:38;11.27;;;2.77;;
21215;SDS011;10765;50.954;5.322;2023-03-14T04:19:05;7.80;;;3.00;;
21215;SDS011;10765;50.954;5.322;2023-03-14T04:21:32;8.77;;;2.40;;
21215;SDS011;10765;50.954;5.322;2023-03-14T04:24:00;7.97;;;2.33;;
21215;SDS011;10765;50.954;5.322;2023-03-14T04:26:27;9.53;;;2.60;;
21215;SDS011;10765;50.954;5.322;2023-03-14T04:28:54;8.13;;;2.20;;
21215;SDS011;10765;50.954;5.322;2023-03-14T04:31:21;8.43;;;2.13;;
21215;SDS011;10765;50.954;5.322;2023-03-14T04:33:48;6.67;;;1.87;;
21215;SDS011;10765;50.954;5.322;2023-03-14T04:36:15;6.43;;;2.03;;
21215;SDS011;10765;50.954;5.322;2023-03-14T04:38:42;8.70;;;2.20;;
21215;SDS011;10765;50.954;5.322;2023-03-14T04:41:10;5.63;;;1.67;;
21215;SDS011;10765;50.954;5.322;2023-03-14T04:43:37;5.60;;;1.57;;
21215;SDS011;10765;50.954;5.322;2023-03-14T04:46:04;7.07;;;1.80;;
21215;SDS011;10765;50.954;5.322;2023-03-14T04:48:32;4.03;;;1.23;;
21215;SDS011;10765;50.954;5.322;2023-03-14T04:50:58;3.40;;;1.33;;
21215;SDS011;10765;50.954;5.322;2023-03-14T04:53:25;4.57;;;1.33;;
21215;SDS011;10765;50.954;5.322;2023-03-14T04:55:53;3.20;;;1.20;;
21215;SDS011;10765;50.954;5.322;2023-03-14T04:58:22;6.17;;;1.17;;
21215;SDS011;10765;50.954;5.322;2023-03-14T05:00:50;3.40;;;1.30;;
21215;SDS011;10765;50.954;5.322;2023-03-14T05:03:17;4.10;;;0.90;;
21215;SDS011;10765;50.954;5.322;2023-03-14T05:05:44;3.23;;;1.20;;
21215;SDS011;10765;50.954;5.322;2023-03-14T05:08:15;4.07;;;1.10;;
21215;SDS011;10765;50.954;5.322;2023-03-14T05:10:42;2.50;;;1.07;;
21215;SDS011;10765;50.954;5.322;2023-03-14T05:13:08;2.67;;;0.80;;
21215;SDS011;10765;50.954;5.322;2023-03-14T05:15:37;2.03;;;1.00;;
21215;SDS011;10765;50.954;5.322;2023-03-14T05:18:04;3.27;;;0.93;;
21215;SDS011;10765;50.954;5.322;2023-03-14T05:20:31;3.03;;;0.97;;
21215;SDS011;10765;50.954;5.322;2023-03-14T05:22:57;1.30;;;0.60;;
21215;SDS011;10765;50.954;5.322;2023-03-14T05:25:24;1.10;;;0.70;;
21215;SDS011;10765;50.954;5.322;2023-03-14T05:27:53;2.80;;;0.70;;
21215;SDS011;10765;50.954;5.322;2023-03-14T05:30:20;1.30;;;0.63;;
21215;SDS011;10765;50.954;5.322;2023-03-14T05:32:50;1.73;;;0.70;;
21215;SDS011;10765;50.954;5.322;2023-03-14T05:35:17;2.17;;;0.73;;
21215;SDS011;10765;50.954;5.322;2023-03-14T05:37:44;2.43;;;1.00;;
21215;SDS011;10765;50.954;5.322;2023-03-14T05:40:13;1.33;;;0.60;;
21215;SDS011;10765;50.954;5.322;2023-03-14T05:42:40;1.73;;;0.80;;
21215;SDS011;10765;50.954;5.322;2023-03-14T05:45:07;2.37;;;1.33;;
21215;SDS011;10765;50.954;5.322;2023-03-14T05:47:35;1.43;;;0.90;;
21215;SDS011;10765;50.954;5.322;2023-03-14T05:50:03;2.23;;;1.20;;
21215;SDS011;10765;50.954;5.322;2023-03-14T05:52:31;2.13;;;1.50;;
21215;SDS011;10765;50.954;5.322;2023-03-14T05:54:58;2.80;;;1.73;;
21215;SDS011;10765;50.954;5.322;2023-03-14T05:57:25;2.53;;;2.00;;
21215;SDS011;10765;50.954;5.322;2023-03-14T05:59:52;3.33;;;2.30;;
21215;SDS011;10765;50.954;5.322;2023-03-14T06:02:19;4.50;;;2.40;;
21215;SDS011;10765;50.954;5.322;2023-03-14T06:04:45;4.07;;;2.50;;
21215;SDS011;10765;50.954;5.322;2023-03-14T06:07:14;4.37;;;2.73;;
21215;SDS011;10765;50.954;5.322;2023-03-14T06:09:41;5.10;;;3.00;;
21215;SDS011;10765;50.954;5.322;2023-03-14T06:12:07;2.97;;;2.57;;
21215;SDS011;10765;50.954;5.322;2023-03-14T06:14:34;3.30;;;2.73;;
21215;SDS011;10765;50.954;5.322;2023-03-14T06:17:01;2.87;;;2.57;;
21215;SDS011;10765;50.954;5.322;2023-03-14T06:19:28;3.43;;;2.67;;
21215;SDS011;10765;50.954;5.322;2023-03-14T06:21:55;4.47;;;2.93;;
21215;SDS011;10765;50.954;5.322;2023-03-14T06:24:23;3.57;;;2.90;;
21215;SDS011;10765;50.954;5.322;2023-03-14T06:26:50;3.57;;;2.60;;
21215;SDS011;10765;50.954;5.322;2023-03-14T06:29:17;3.47;;;2.80;;
21215;SDS011;10765;50.954;5.322;2023-03-14T06:31:44;3.27;;;2.43;;
21215;SDS011;10765;50.954;5.322;2023-03-14T06:34:11;2.67;;;2.47;;
21215;SDS011;10765;50.954;5.322;2023-03-14T06:36:38;4.03;;;2.60;;
21215;SDS011;10765;50.954;5.322;2023-03-14T06:39:05;2.27;;;2.03;;
21215;SDS011;10765;50.954;5.322;2023-03-14T06:41:34;2.67;;;2.00;;
21215;SDS011;10765;50.954;5.322;2023-03-14T06:44:01;2.67;;;2.23;;
21215;SDS011;10765;50.954;5.322;2023-03-14T06:46:28;1.93;;;1.80;;
21215;SDS011;10765;50.954;5.322;2023-03-14T06:48:55;2.80;;;1.83;;
21215;SDS011;10765;50.954;5.322;2023-03-14T06:51:21;2.40;;;1.87;;
21215;SDS011;10765;50.954;5.322;2023-03-14T06:53:48;2.80;;;1.50;;
21215;SDS011;10765;50.954;5.322;2023-03-14T06:56:15;3.23;;;1.80;;
21215;SDS011;10765;50.954;5.322;2023-03-14T06:58:44;3.10;;;1.70;;
21215;SDS011;10765;50.954;5.322;2023-03-14T07:01:15;1.67;;;1.53;;
21215;SDS011;10765;50.954;5.322;2023-03-14T07:03:46;2.97;;;1.87;;
21215;SDS011;10765;50.954;5.322;2023-03-14T07:06:13;5.20;;;3.13;;
21215;SDS011;10765;50.954;5.322;2023-03-14T07:08:42;2.50;;;1.70;;
21215;SDS011;10765;50.954;5.322;2023-03-14T07:11:08;3.87;;;1.97;;
21215;SDS011;10765;50.954;5.322;2023-03-14T07:13:36;2.53;;;2.00;;
21215;SDS011;10765;50.954;5.322;2023-03-14T07:16:05;3.53;;;2.00;;
21215;SDS011;10765;50.954;5.322;2023-03-14T07:18:33;4.23;;;1.90;;
21215;SDS011;10765;50.954;5.322;2023-03-14T07:21:00;2.63;;;1.87;;
21215;SDS011;10765;50.954;5.322;2023-03-14T07:23:27;2.10;;;1.90;;
21215;SDS011;10765;50.954;5.322;2023-03-14T07:25:54;2.37;;;2.10;;
21215;SDS011;10765;50.954;5.322;2023-03-14T07:28:21;3.87;;;2.20;;
21215;SDS011;10765;50.954;5.322;2023-03-14T07:30:49;2.97;;;2.30;;
21215;SDS011;10765;50.954;5.322;2023-03-14T07:33:17;2.77;;;2.10;;
21215;SDS011;10765;50.954;5.322;2023-03-14T07:35:45;4.00;;;2.17;;
21215;SDS011;10765;50.954;5.322;2023-03-14T07:38:13;2.40;;;2.20;;
21215;SDS011;10765;50.954;5.322;2023-03-14T07:40:40;3.60;;;2.30;;
21215;SDS011;10765;50.954;5.322;2023-03-14T07:43:07;2.50;;;2.20;;
21215;SDS011;10765;50.954;5.322;2023-03-14T07:45:34;4.07;;;2.20;;
21215;SDS011;10765;50.954;5.322;2023-03-14T07:48:01;3.90;;;2.57;;
21215;SDS011;10765;50.954;5.322;2023-03-14T07:50:29;3.93;;;2.27;;
21215;SDS011;10765;50.954;5.322;2023-03-14T07:52:56;4.20;;;2.47;;
21215;SDS011;10765;50.954;5.322;2023-03-14T07:55:23;0.90;;;0.70;;
21215;SDS011;10765;50.954;5.322;2023-03-14T07:57:50;2.10;;;1.10;;
21215;SDS011;10765;50.954;5.322;2023-03-14T08:00:17;1.00;;;0.90;;
21215;SDS011;10765;50.954;5.322;2023-03-14T08:02:44;1.87;;;1.10;;
21215;SDS011;10765;50.954;5.322;2023-03-14T08:05:11;2.03;;;1.20;;
21215;SDS011;10765;50.954;5.322;2023-03-14T08:07:40;2.03;;;1.30;;
21215;SDS011;10765;50.954;5.322;2023-03-14T08:10:07;2.70;;;1.57;;
21215;SDS011;10765;50.954;5.322;2023-03-14T08:12:35;2.90;;;1.70;;
21215;SDS011;10765;50.954;5.322;2023-03-14T08:15:02;3.20;;;2.20;;
21215;SDS011;10765;50.954;5.322;2023-03-14T08:17:29;2.53;;;2.33;;
21215;SDS011;10765;50.954;5.322;2023-03-14T08:19:56;3.20;;;2.87;;
21215;SDS011;10765;50.954;5.322;2023-03-14T08:22:23;3.60;;;2.60;;
21215;SDS011;10765;50.954;5.322;2023-03-14T08:24:51;3.27;;;3.07;;
21215;SDS011;10765;50.954;5.322;2023-03-14T08:27:18;5.67;;;3.67;;
21215;SDS011;10765;50.954;5.322;2023-03-14T08:29:45;4.60;;;3.93;;
21215;SDS011;10765;50.954;5.322;2023-03-14T08:32:12;4.00;;;3.50;;
21215;SDS011;10765;50.954;5.322;2023-03-14T08:34:39;3.33;;;3.00;;
21215;SDS011;10765;50.954;5.322;2023-03-14T08:37:05;3.30;;;3.10;;
21215;SDS011;10765;50.954;5.322;2023-03-14T08:39:32;3.47;;;3.13;;
21215;SDS011;10765;50.954;5.322;2023-03-14T08:42:01;3.80;;;3.47;;
21215;SDS011;10765;50.954;5.322;2023-03-14T08:44:28;3.70;;;3.40;;
21215;SDS011;10765;50.954;5.322;2023-03-14T08:46:55;6.03;;;3.83;;
21215;SDS011;10765;50.954;5.322;2023-03-14T08:49:22;4.33;;;3.80;;
21215;SDS011;10765;50.954;5.322;2023-03-14T08:51:49;4.60;;;3.03;;
21215;SDS011;10765;50.954;5.322;2023-03-14T08:54:16;3.40;;;2.83;;
21215;SDS011;10765;50.954;5.322;2023-03-14T08:56:43;4.77;;;3.10;;
21215;SDS011;10765;50.954;5.322;2023-03-14T08:59:12;4.83;;;2.40;;
21215;SDS011;10765;50.954;5.322;2023-03-14T09:01:38;5.23;;;2.63;;
21215;SDS011;10765;50.954;5.322;2023-03-14T09:04:05;2.83;;;2.33;;
21215;SDS011;10765;50.954;5.322;2023-03-14T09:06:32;3.97;;;2.30;;
21215;SDS011;10765;50.954;5.322;2023-03-14T09:08:59;4.50;;;2.07;;
21215;SDS011;10765;50.954;5.322;2023-03-14T09:11:26;4.50;;;2.40;;
21215;SDS011;10765;50.954;5.322;2023-03-14T09:13:53;4.87;;;2.40;;
21215;SDS011;10765;50.954;5.322;2023-03-14T09:16:21;3.10;;;2.10;;
21215;SDS011;10765;50.954;5.322;2023-03-14T09:18:48;2.80;;;2.07;;
21215;SDS011;10765;50.954;5.322;2023-03-14T09:21:18;4.87;;;2.60;;
21215;SDS011;10765;50.954;5.322;2023-03-14T09:23:45;2.73;;;2.50;;
21215;SDS011;10765;50.954;5.322;2023-03-14T09:26:14;4.13;;;2.87;;
21215;SDS011;10765;50.954;5.322;2023-03-14T09:28:43;3.30;;;2.60;;
21215;SDS011;10765;50.954;5.322;2023-03-14T09:31:15;3.80;;;2.30;;
21215;SDS011;10765;50.954;5.322;2023-03-14T09:33:43;5.03;;;2.60;;
21215;SDS011;10765;50.954;5.322;2023-03-14T09:36:10;2.87;;;2.10;;
21215;SDS011;10765;50.954;5.322;2023-03-14T09:38:37;4.10;;;2.23;;
21215;SDS011;10765;50.954;5.322;2023-03-14T09:41:10;4.00;;;1.90;;
21215;SDS011;10765;50.954;5.322;2023-03-14T09:43:40;2.80;;;1.90;;
21215;SDS011;10765;50.954;5.322;2023-03-14T09:46:09;2.73;;;1.80;;
21215;SDS011;10765;50.954;5.322;2023-03-14T09:48:37;4.50;;;2.23;;
21215;SDS011;10765;50.954;5.322;2023-03-14T09:51:10;3.70;;;3.03;;
21215;SDS011;10765;50.954;5.322;2023-03-14T09:53:40;4.10;;;3.20;;
21215;SDS011;10765;50.954;5.322;2023-03-14T09:56:10;4.37;;;3.70;;
21215;SDS011;10765;50.954;5.322;2023-03-14T09:58:40;4.23;;;3.87;;
21215;SDS011;10765;50.954;5.322;2023-03-14T10:01:09;5.47;;;3.60;;
21215;SDS011;10765;50.954;5.322;2023-03-14T10:03:40;6.37;;;3.37;;
21215;SDS011;10765;50.954;5.322;2023-03-14T10:06:12;3.67;;;3.20;;
21215;SDS011;10765;50.954;5.322;2023-03-14T10:08:40;3.23;;;2.60;;
21215;SDS011;10765;50.954;5.322;2023-03-14T10:11:10;1.90;;;1.73;;
21215;SDS011;10765;50.954;5.322;2023-03-14T10:13:48;2.67;;;1.60;;
21215;SDS011;10765;50.954;5.322;2023-03-14T10:16:17;2.87;;;1.80;;
21215;SDS011;10765;50.954;5.322;2023-03-14T10:18:54;2.20;;;1.80;;
21215;SDS011;10765;50.954;5.322;2023-03-14T10:21:30;3.20;;;2.20;;
21215;SDS011;10765;50.954;5.322;2023-03-14T10:24:16;4.10;;;1.90;;
21215;SDS011;10765;50.954;5.322;2023-03-14T10:26:47;2.73;;;1.30;;
21215;SDS011;10765;50.954;5.322;2023-03-14T10:29:15;4.10;;;2.13;;
21215;SDS011;10765;50.954;5.322;2023-03-14T10:31:46;3.47;;;1.67;;
21215;SDS011;10765;50.954;5.322;2023-03-14T10:34:16;4.30;;;1.90;;
21215;SDS011;10765;50.954;5.322;2023-03-14T10:36:53;2.20;;;1.43;;
21215;SDS011;10765;50.954;5.322;2023-03-14T10:39:25;3.47;;;1.87;;
21215;SDS011;10765;50.954;5.322;2023-03-14T10:41:55;4.77;;;2.33;;
21215;SDS011;10765;50.954;5.322;2023-03-14T10:44:30;2.03;;;1.47;;
21215;SDS011;10765;50.954;5.322;2023-03-14T10:46:59;3.90;;;1.60;;
21215;SDS011;10765;50.954;5.322;2023-03-14T10:49:28;2.37;;;1.73;;
21215;SDS011;10765;50.954;5.322;2023-03-14T10:52:02;1.80;;;1.53;;
21215;SDS011;10765;50.954;5.322;2023-03-14T10:54:41;4.70;;;1.70;;
21215;SDS011;10765;50.954;5.322;2023-03-14T10:57:12;2.70;;;1.40;;
21215;SDS011;10765;50.954;5.322;2023-03-14T10:59:39;1.77;;;1.03;;
21215;SDS011;10765;50.954;5.322;2023-03-14T11:02:14;3.60;;;1.40;;
21215;SDS011;10765;50.954;5.322;2023-03-14T11:04:56;3.40;;;1.40;;
21215;SDS011;10765;50.954;5.322;2023-03-14T11:07:38;2.27;;;1.03;;
21215;SDS011;10765;50.954;5.322;2023-03-14T11:10:08;2.13;;;1.00;;
21215;SDS011;10765;50.954;5.322;2023-03-14T11:12:41;1.80;;;0.90;;
21215;SDS011;10765;50.954;5.322;2023-03-14T11:15:20;2.17;;;1.00;;
21215;SDS011;10765;50.954;5.322;2023-03-14T11:17:58;1.27;;;0.80;;
21215;SDS011;10765;50.954;5.322;2023-03-14T11:20:42;1.37;;;0.53;;
21215;SDS011;10765;50.954;5.322;2023-03-14T11:23:20;0.63;;;0.60;;
21215;SDS011;10765;50.954;5.322;2023-03-14T11:25:51;1.40;;;0.80;;
21215;SDS011;10765;50.954;5.322;2023-03-14T11:28:27;1.10;;;0.90;;
21215;SDS011;10765;50.954;5.322;2023-03-14T11:31:02;0.97;;;0.97;;
21215;SDS011;10765;50.954;5.322;2023-03-14T11:33:37;1.27;;;1.10;;
21215;SDS011;10765;50.954;5.322;2023-03-14T11:36:06;1.40;;;1.30;;
21215;SDS011;10765;50.954;5.322;2023-03-14T11:38:37;3.57;;;1.70;;
21215;SDS011;10765;50.954;5.322;2023-03-14T11:41:09;1.50;;;1.40;;
21215;SDS011;10765;50.954;5.322;2023-03-14T11:43:40;1.97;;;1.60;;
21215;SDS011;10765;50.954;5.322;2023-03-14T11:46:09;3.33;;;1.70;;
21215;SDS011;10765;50.954;5.322;2023-03-14T11:48:41;1.60;;;1.50;;
21215;SDS011;10765;50.954;5.322;2023-03-14T11:51:13;3.13;;;1.60;;
21215;SDS011;10765;50.954;5.322;2023-03-14T11:53:50;1.50;;;1.40;;
21215;SDS011;10765;50.954;5.322;2023-03-14T11:56:26;2.87;;;1.87;;
21215;SDS011;10765;50.954;5.322;2023-03-14T11:58:59;3.93;;;1.83;;
21215;SDS011;10765;50.954;5.322;2023-03-14T12:01:36;3.00;;;1.80;;
21215;SDS011;10765;50.954;5.322;2023-03-14T12:04:16;3.73;;;2.37;;
21215;SDS011;10765;50.954;5.322;2023-03-14T12:06:48;3.40;;;2.30;;
21215;SDS011;10765;50.954;5.322;2023-03-14T12:09:17;3.03;;;1.67;;
21215;SDS011;10765;50.954;5.322;2023-03-14T12:11:47;3.50;;;1.90;;
21215;SDS011;10765;50.954;5.322;2023-03-14T12:14:18;2.70;;;1.50;;
21215;SDS011;10765;50.954;5.322;2023-03-14T12:16:48;2.80;;;1.53;;
21215;SDS011;10765;50.954;5.322;2023-03-14T12:19:31;2.77;;;1.50;;
21215;SDS011;10765;50.954;5.322;2023-03-14T12:22:19;2.33;;;1.70;;
21215;SDS011;10765;50.954;5.322;2023-03-14T12:25:00;5.47;;;1.77;;
21215;SDS011;10765;50.954;5.322;2023-03-14T12:27:45;2.73;;;1.50;;
21215;SDS011;10765;50.954;5.322;2023-03-14T12:30:30;4.20;;;1.80;;
21215;SDS011;10765;50.954;5.322;2023-03-14T12:35:57;4.93;;;1.70;;
21215;SDS011;10765;50.954;5.322;2023-03-14T12:38:27;6.40;;;2.30;;
21215;SDS011;10765;50.954;5.322;2023-03-14T12:41:15;4.63;;;1.97;;
21215;SDS011;10765;50.954;5.322;2023-03-14T12:43:46;5.50;;;1.60;;
21215;SDS011;10765;50.954;5.322;2023-03-14T12:46:21;3.20;;;1.13;;
21215;SDS011;10765;50.954;5.322;2023-03-14T12:48:49;8.93;;;1.70;;
21215;SDS011;10765;50.954;5.322;2023-03-14T12:51:20;8.30;;;1.70;;
21215;SDS011;10765;50.954;5.322;2023-03-14T12:53:58;9.67;;;2.17;;
21215;SDS011;10765;50.954;5.322;2023-03-14T12:59:45;9.47;;;2.17;;
21215;SDS011;10765;50.954;5.322;2023-03-14T13:02:21;10.00;;;2.23;;
21215;SDS011;10765;50.954;5.322;2023-03-14T13:04:51;7.90;;;2.30;;
21215;SDS011;10765;50.954;5.322;2023-03-14T13:07:30;11.13;;;3.33;;
21215;SDS011;10765;50.954;5.322;2023-03-14T13:10:04;11.00;;;3.80;;
21215;SDS011;10765;50.954;5.322;2023-03-14T13:12:49;9.83;;;2.63;;
21215;SDS011;10765;50.954;5.322;2023-03-14T13:15:18;8.77;;;2.43;;
21215;SDS011;10765;50.954;5.322;2023-03-14T13:17:49;12.57;;;2.93;;
21215;SDS011;10765;50.954;5.322;2023-03-14T13:20:21;11.13;;;2.90;;
21215;SDS011;10765;50.954;5.322;2023-03-14T13:22:53;8.60;;;2.63;;
21215;SDS011;10765;50.954;5.322;2023-03-14T13:25:20;10.77;;;2.73;;
21215;SDS011;10765;50.954;5.322;2023-03-14T13:27:49;10.53;;;3.40;;
21215;SDS011;10765;50.954;5.322;2023-03-14T13:30:21;13.17;;;3.07;;
21215;SDS011;10765;50.954;5.322;2023-03-14T13:32:50;12.73;;;3.60;;
21215;SDS011;10765;50.954;5.322;2023-03-14T13:35:19;14.13;;;3.87;;
21215;SDS011;10765;50.954;5.322;2023-03-14T13:37:51;14.10;;;3.67;;
21215;SDS011;10765;50.954;5.322;2023-03-14T13:40:20;11.90;;;3.37;;
21215;SDS011;10765;50.954;5.322;2023-03-14T13:43:00;14.87;;;3.57;;
21215;SDS011;10765;50.954;5.322;2023-03-14T13:45:29;13.10;;;4.17;;
21215;SDS011;10765;50.954;5.322;2023-03-14T13:47:56;10.37;;;3.73;;
21215;SDS011;10765;50.954;5.322;2023-03-14T13:50:23;14.50;;;2.77;;
21215;SDS011;10765;50.954;5.322;2023-03-14T13:52:54;17.93;;;3.20;;
21215;SDS011;10765;50.954;5.322;2023-03-14T13:55:23;10.30;;;2.70;;
21215;SDS011;10765;50.954;5.322;2023-03-14T13:57:51;11.03;;;2.93;;
21215;SDS011;10765;50.954;5.322;2023-03-14T14:00:22;13.03;;;3.03;;
21215;SDS011;10765;50.954;5.322;2023-03-14T14:02:52;12.90;;;2.60;;
21215;SDS011;10765;50.954;5.322;2023-03-14T14:05:21;11.70;;;2.90;;
21215;SDS011;10765;50.954;5.322;2023-03-14T14:07:48;14.10;;;3.17;;
21215;SDS011;10765;50.954;5.322;2023-03-14T14:10:16;11.87;;;3.70;;
21215;SDS011;10765;50.954;5.322;2023-03-14T14:12:45;11.70;;;3.47;;
21215;SDS011;10765;50.954;5.322;2023-03-14T14:15:16;13.90;;;3.40;;
21215;SDS011;10765;50.954;5.322;2023-03-14T14:17:47;14.53;;;3.70;;
21215;SDS011;10765;50.954;5.322;2023-03-14T14:20:22;9.73;;;2.60;;
21215;SDS011;10765;50.954;5.322;2023-03-14T14:22:56;6.33;;;2.13;;
21215;SDS011;10765;50.954;5.322;2023-03-14T14:25:24;5.83;;;1.90;;
21215;SDS011;10765;50.954;5.322;2023-03-14T14:27:51;6.77;;;2.43;;
21215;SDS011;10765;50.954;5.322;2023-03-14T14:30:25;10.23;;;2.13;;
21215;SDS011;10765;50.954;5.322;2023-03-14T14:33:11;5.10;;;2.00;;
21215;SDS011;10765;50.954;5.322;2023-03-14T14:35:52;3.87;;;1.87;;
21215;SDS011;10765;50.954;5.322;2023-03-14T14:38:21;4.80;;;1.80;;
21215;SDS011;10765;50.954;5.322;2023-03-14T14:40:50;5.47;;;1.90;;
21215;SDS011;10765;50.954;5.322;2023-03-14T14:43:21;7.00;;;1.67;;
21215;SDS011;10765;50.954;5.322;2023-03-14T14:45:50;5.30;;;2.40;;
21215;SDS011;10765;50.954;5.322;2023-03-14T14:48:20;5.50;;;1.70;;
21215;SDS011;10765;50.954;5.322;2023-03-14T14:50:50;3.50;;;1.57;;
21215;SDS011;10765;50.954;5.322;2023-03-14T14:53:23;3.43;;;1.60;;
21215;SDS011;10765;50.954;5.322;2023-03-14T14:55:53;4.67;;;1.73;;
21215;SDS011;10765;50.954;5.322;2023-03-14T14:58:23;7.43;;;2.30;;
21215;SDS011;10765;50.954;5.322;2023-03-14T15:00:53;3.50;;;1.70;;
21215;SDS011;10765;50.954;5.322;2023-03-14T15:03:24;5.57;;;2.10;;
21215;SDS011;10765;50.954;5.322;2023-03-14T15:05:54;6.47;;;2.00;;
21215;SDS011;10765;50.954;5.322;2023-03-14T15:08:21;4.73;;;1.93;;
21215;SDS011;10765;50.954;5.322;2023-03-14T15:10:49;6.47;;;2.07;;